Terminal Aerodrome Forecast
Issued by NWS

Home | Current Version | Previous Version | Text Only | Print | Product List | Glossary Off
Versions: 1 2 3 4 5 6 7 8 9 10 11 12 13

000
FTUS43 KBIS 190526
TAFDIK
TAF
KDIK 190526Z 1906/2006 16007KT P6SM SKC
     FM191000 19008KT P6SM SKC
     FM191400 23013KT P6SM FEW250
     FM191700 29015KT P6SM FEW150 SCT250
     FM200200 33013KT P6SM FEW110 FEW200
     FM200500 01009KT P6SM FEW100 FEW200=

USA.gov is the U.S. government's official web portal to all federal, state and local government web resources and services.